ENCNENBR

Guest
Details From ENCN - Kristiansand lufthavn Kjevik
To ENBR - Bergen Lufthavn Flesland
Flight Number -
Tags generated
Created
Modified
Stats Distance 156 nm / 289 km
Max Altitude 14,700 ft / 4,481 m
Waypoints 4
Social Downloads 1
Likes 0
Share VATSIM

Download

Looking for another format? Having issues loading an existing format? Contact us
Advertisement - Login to hide

Notes

Basic altitude profile: - Ascent Rate: 2500ft/min - Ascent Speed: 250kts - Cruise Altitude: 180ft - Cruise Speed: 420kts - Descent Rate: 1800ft/min - Descent Speed: 250kts Options: - Use NATs: yes - Use PACOTS: yes - Use low airways: yes - Use high airways: yes

Route

ENCN SOXUS M725 FLS ENBR

ID Type Via Altitude Latitude Longitude Leg Dist Tot Dist Heading (true) Name
O ENCN APT - 0 ft / 0 m 58.20419˚ 8.08534˚ - 0 nm - Kristiansand lufthavn Kjevik
SOXUS FIX - 14,700 ft / 4,481 m 58.87278˚ 7.50000˚ 44 nm 44 nm 336° / 335° -
FLS VOR M725 (AWY-LO) 10,000 ft / 3,048 m 60.31126˚ 5.21219˚ 110 nm 155 nm 322° / 320° FLESLAND VOR-DME
O ENBR APT - 0 ft / 0 m 60.29339˚ 5.21814˚ 1 nm 156 nm 171° / 171° Bergen Lufthavn Flesland

Altitude Profile

Advertisement - Login to hide

ENCN

Details ICAO ENCN (KRS)
Name Kristiansand lufthavn Kjevik
Region Norway
Timezone Europe/Oslo (UTC+1.0)
Stats Elevation 57 ft / 17 m (AMSL)
Location 58.204191° 8.085337°
Runways 1
Magnetic Variation 2.112° E

METAR

ENCN 151350Z VRB02KT 9999 VCSH FEW030 BKN046 M00/M01 Q0992

Decode

TAF

Not found

Departure Runways

ID Width Length Bearing (true) Bearing (mag) Surface Threshold Offset Overrun Length
04 148 ft / 45 m 6,667 ft / 2,032 m 34.94° 32.83° Asphalt 217 ft / 66 m 131 ft / 40 m
22 148 ft / 45 m 6,667 ft / 2,032 m 214.96° 212.85° Asphalt 325 ft / 99 m 312 ft / 95 m

ENBR

Details ICAO ENBR (BGO)
Name Bergen Lufthavn Flesland
Region Norway
Timezone Europe/Oslo (UTC+1.0)
Stats Elevation 165 ft / 50 m (AMSL)
Location 60.293388° 5.218140°
Runways 1
Magnetic Variation 0.841° E

METAR

ENBR 151350Z 35003KT 9999 FEW020CB FEW200 M01/M06 Q0994 NOSIG RMK WIND 1200FT 36014KT

Decode

TAF

TAF ENBR 151100Z 1512/1612 36008KT 9999 FEW020CB SCT060 TEMPO 1604/1612 1200 SHSN VV008

Decode

Destination Runways

ID Width Length Bearing (true) Bearing (mag) Surface Threshold Offset Overrun Length
17 148 ft / 45 m 9,793 ft / 2,985 m 170.56° 169.72° Asphalt 886 ft / 270 m 0 ft / 0 m
35 148 ft / 45 m 9,793 ft / 2,985 m 350.57° 349.73° Asphalt 886 ft / 270 m 0 ft / 0 m

Approach Navaids

Runway Type Ident Frequency Range Bearing (true) Bearing (mag) Slope Elevation
17 Localiser BR 109.90 MHz 18 nm / 33 km 170.56° 169.72° - 165 ft / 50 m (AMSL)
17 Glidescope BR 109.90 MHz 10 nm / 19 km 170.56° 169.72° 3.10° 165 ft / 50 m (AMSL)
35 Localiser BG 110.50 MHz 18 nm / 33 km 350.55° 349.70° - 165 ft / 50 m (AMSL)
35 Glidescope BG 110.50 MHz 10 nm / 19 km 350.56° 349.72° 3.00° 165 ft / 50 m (AMSL)

Popular Alternatives